createdAt,value
2023-01-02T00:01:42.046Z,9.15
2023-01-02T00:06:43.779Z,6.03
2023-01-02T00:11:45.621Z,5.07
2023-01-02T00:16:47.465Z,8.25
2023-01-02T00:21:49.195Z,4.07
2023-01-02T00:26:50.959Z,8.30
2023-01-02T00:31:52.834Z,5.68
2023-01-02T00:36:54.558Z,4.45
2023-01-02T00:41:56.522Z,7.40
2023-01-02T00:46:58.330Z,7.60
2023-01-02T00:52:01.209Z,4.22
2023-01-02T00:57:03.386Z,6.57
2023-01-02T01:02:05.174Z,5.78
2023-01-02T01:07:06.962Z,4.88
2023-01-02T01:12:09.012Z,9.15
2023-01-02T01:17:10.873Z,9.27
2023-01-02T01:22:12.604Z,8.43
2023-01-02T01:27:14.433Z,8.80
2023-01-02T01:32:16.266Z,5.50
2023-01-02T01:37:17.970Z,5.47
2023-01-02T01:42:19.744Z,9.63
2023-01-02T01:47:37.097Z,10.30
2023-01-02T01:52:47.551Z,10.75
2023-01-02T01:58:02.506Z,7.93
2023-01-02T02:03:15.896Z,6.88
2023-01-02T02:08:40.969Z,9.35
2023-01-02T02:13:42.958Z,7.65
2023-01-02T02:19:14.647Z,8.27
2023-01-02T02:24:31.867Z,8.20
2023-01-02T02:29:57.915Z,6.70
2023-01-02T02:35:24.821Z,7.28
2023-01-02T02:40:45.636Z,8.63
2023-01-02T02:46:05.870Z,6.72
2023-01-02T02:51:22.207Z,8.35
2023-01-02T02:56:27.329Z,10.02
2023-01-02T03:01:31.546Z,8.18
2023-01-02T03:06:44.683Z,7.57
2023-01-02T03:12:17.095Z,7.25
2023-01-02T03:17:38.990Z,12.73
2023-01-02T03:22:45.886Z,8.93
2023-01-02T03:27:51.177Z,8.13
2023-01-02T03:33:00.959Z,7.47
2023-01-02T03:38:06.681Z,9.82
2023-01-02T03:43:18.458Z,7.18
2023-01-02T03:48:44.932Z,8.10
2023-01-02T03:53:50.035Z,6.28
2023-01-02T03:59:03.920Z,8.23
2023-01-02T04:04:18.938Z,7.82
2023-01-02T04:09:27.022Z,5.70
2023-01-02T04:14:31.779Z,7.65
2023-01-02T04:19:37.857Z,6.15
2023-01-02T04:24:43.416Z,6.05
2023-01-02T04:29:45.185Z,6.95
2023-01-02T04:34:48.359Z,6.30
2023-01-02T04:39:50.132Z,5.07
2023-01-02T04:44:51.937Z,4.78
2023-01-02T04:49:53.734Z,4.82
2023-01-02T04:54:55.524Z,5.78
2023-01-02T04:59:57.297Z,5.80
2023-01-02T05:04:59.026Z,8.05
2023-01-02T05:10:00.831Z,5.57
2023-01-02T05:15:04.238Z,5.10
2023-01-02T05:20:09.219Z,6.90
2023-01-02T05:25:12.137Z,4.22
2023-01-02T05:30:14.067Z,6.28
2023-01-02T05:35:15.932Z,5.05
2023-01-02T05:40:17.791Z,9.02
2023-01-02T05:45:19.518Z,6.05
2023-01-02T05:50:21.273Z,5.57
2023-01-02T05:55:23.046Z,5.75
2023-01-02T06:00:25.001Z,5.32
2023-01-02T06:05:28.113Z,6.45
2023-01-02T06:10:29.933Z,4.43
2023-01-02T06:15:31.650Z,8.23
2023-01-02T06:20:33.350Z,9.27
2023-01-02T06:25:35.136Z,10.30
2023-01-02T06:30:36.870Z,7.72
2023-01-02T06:35:38.964Z,6.30
2023-01-02T06:40:40.700Z,4.60
2023-01-02T06:45:42.498Z,7.20
2023-01-02T06:50:45.512Z,6.75
2023-01-02T06:55:59.942Z,3.90
2023-01-02T07:01:16.526Z,7.18
2023-01-02T07:06:20.647Z,4.55
2023-01-02T07:11:24.595Z,6.65
2023-01-02T07:16:26.407Z,7.30
2023-01-02T07:21:29.957Z,5.07
2023-01-02T07:26:31.698Z,7.95
2023-01-02T07:31:33.567Z,4.55
2023-01-02T07:36:35.310Z,3.60
2023-01-02T07:41:37.108Z,4.63
2023-01-02T07:46:48.283Z,6.85
2023-01-02T07:51:50.123Z,7.82
2023-01-02T07:56:53.175Z,6.15
2023-01-02T08:01:54.980Z,5.38
2023-01-02T08:06:56.759Z,8.02
2023-01-02T08:11:58.660Z,4.43
2023-01-02T08:17:00.453Z,4.70
2023-01-02T08:22:02.619Z,4.32
2023-01-02T08:27:04.397Z,5.43
2023-01-02T08:32:06.264Z,7.97
2023-01-02T08:37:07.983Z,4.78
2023-01-02T08:42:09.824Z,4.53
2023-01-02T08:47:11.713Z,11.32
2023-01-02T08:52:13.447Z,9.32
2023-01-02T08:57:15.172Z,11.75
2023-01-02T09:02:16.984Z,9.18
2023-01-02T09:07:18.965Z,5.57
2023-01-02T09:12:20.722Z,7.13
2023-01-02T09:17:23.549Z,6.82
2023-01-02T09:22:25.289Z,11.13
2023-01-02T09:27:27.042Z,5.15
2023-01-02T09:32:28.798Z,7.47
2023-01-02T09:37:30.590Z,6.38
2023-01-02T09:42:32.851Z,8.85
2023-01-02T09:47:34.994Z,10.27
2023-01-02T09:52:51.093Z,8.70
2023-01-02T09:58:17.496Z,12.85
2023-01-02T10:03:36.179Z,9.75
2023-01-02T10:08:43.617Z,6.10
2023-01-02T10:14:17.879Z,11.55
2023-01-02T10:19:19.227Z,11.90
2023-01-02T10:24:34.199Z,12.02
2023-01-02T10:29:44.248Z,18.58
2023-01-02T10:35:06.487Z,24.50
2023-01-02T10:40:08.672Z,13.70
2023-01-02T10:45:16.173Z,14.75
2023-01-02T10:50:22.083Z,12.25
2023-01-02T10:55:32.412Z,12.35
2023-01-02T11:00:36.515Z,8.73
2023-01-02T11:05:46.842Z,9.77
2023-01-02T11:10:50.582Z,12.80
2023-01-02T11:15:58.587Z,12.15
2023-01-02T11:21:06.826Z,18.33
2023-01-02T11:26:19.768Z,14.23
2023-01-02T11:31:22.689Z,11.60
2023-01-02T11:36:24.601Z,10.32
2023-01-02T11:42:10.192Z,9.18
2023-01-02T11:47:14.212Z,8.00
2023-01-02T11:52:21.196Z,8.80
2023-01-02T11:57:34.509Z,8.30
2023-01-02T12:02:41.872Z,8.15
2023-01-02T12:07:46.511Z,7.80
2023-01-02T12:13:12.465Z,9.55
2023-01-02T12:18:39.128Z,9.13
2023-01-02T12:23:52.409Z,6.90
2023-01-02T12:29:06.266Z,6.78
2023-01-02T12:34:12.813Z,6.95
2023-01-02T12:39:53.072Z,7.15
2023-01-02T12:44:57.126Z,5.93
2023-01-02T12:50:14.245Z,6.30
2023-01-02T12:55:20.319Z,8.85
2023-01-02T13:00:37.133Z,8.25
2023-01-02T13:05:44.838Z,8.13
2023-01-02T13:10:48.135Z,6.75
2023-01-02T13:15:51.436Z,7.28
2023-01-02T13:21:08.425Z,8.30
2023-01-02T13:26:13.563Z,6.28
2023-01-02T13:36:47.352Z,7.72
2023-01-02T13:42:15.640Z,7.55
2023-01-02T13:47:27.303Z,15.95
2023-01-02T13:52:29.380Z,17.10
2023-01-02T13:57:32.363Z,12.57
2023-01-02T14:02:34.304Z,11.30
2023-01-02T14:07:44.594Z,11.65
2023-01-02T14:12:53.774Z,12.43
2023-01-02T14:18:01.167Z,13.25
2023-01-02T14:23:23.061Z,14.02
2023-01-02T14:28:31.125Z,9.93
2023-01-02T14:33:35.759Z,9.70
2023-01-02T14:38:50.491Z,11.38
2023-01-02T14:43:52.550Z,9.02
2023-01-02T14:49:24.818Z,9.98
2023-01-02T14:54:48.881Z,11.45
2023-01-02T14:59:53.349Z,13.73
2023-01-02T15:05:03.296Z,12.23
2023-01-02T15:10:20.074Z,14.00
2023-01-02T15:15:28.170Z,10.77
2023-01-02T15:20:31.691Z,12.60
2023-01-02T15:25:40.910Z,7.95
2023-01-02T15:30:44.311Z,6.68
2023-01-02T15:35:46.139Z,12.38
2023-01-02T15:40:48.094Z,7.53
2023-01-02T15:45:51.792Z,3.85
2023-01-02T15:50:56.091Z,4.82
2023-01-02T15:55:58.948Z,5.95
2023-01-02T16:01:13.346Z,6.85
2023-01-02T16:06:39.937Z,5.93
2023-01-02T16:11:47.236Z,14.02
2023-01-02T16:16:55.223Z,8.27
2023-01-02T16:22:11.995Z,4.88
2023-01-02T16:27:25.831Z,6.32
2023-01-02T16:32:31.917Z,6.75
2023-01-02T16:37:35.858Z,5.35
2023-01-02T16:42:39.258Z,7.13
2023-01-02T16:47:43.582Z,4.10
2023-01-02T16:52:46.628Z,5.75
2023-01-02T16:57:50.488Z,10.70
2023-01-02T17:02:52.324Z,8.20
2023-01-02T17:07:54.179Z,16.88
2023-01-02T17:12:55.940Z,8.88
2023-01-02T17:17:58.409Z,13.05
2023-01-02T17:23:00.135Z,6.35
2023-01-02T17:28:02.107Z,7.63
2023-01-02T17:33:04.569Z,10.98
2023-01-02T17:38:06.721Z,9.85
2023-01-02T17:43:08.486Z,13.52
2023-01-02T17:48:13.578Z,17.10
2023-01-02T17:58:20.245Z,11.15
2023-01-02T18:03:22.403Z,10.57
2023-01-02T18:08:24.168Z,14.32
2023-01-02T18:13:28.343Z,9.75
2023-01-02T18:18:30.908Z,19.88
2023-01-02T18:23:32.643Z,15.13
2023-01-02T18:28:34.445Z,10.35
2023-01-02T18:33:36.369Z,7.80
2023-01-02T18:38:41.862Z,9.45
2023-01-02T18:43:45.548Z,11.13
2023-01-02T18:48:47.545Z,9.65
2023-01-02T18:53:51.895Z,11.32
2023-01-02T18:59:14.125Z,10.80
2023-01-02T19:04:27.825Z,8.10
2023-01-02T19:09:34.352Z,11.57
2023-01-02T19:14:42.099Z,11.57
2023-01-02T19:24:46.031Z,15.98
2023-01-02T19:29:52.272Z,15.73
2023-01-02T19:35:22.529Z,13.93
2023-01-02T19:40:24.313Z,13.30
2023-01-02T19:45:27.927Z,17.42
2023-01-02T19:50:29.776Z,11.63
2023-01-02T19:55:31.592Z,10.93
2023-01-02T20:00:33.368Z,9.35
2023-01-02T20:05:36.731Z,12.77
2023-01-02T20:10:38.454Z,11.93
2023-01-02T20:15:40.368Z,16.77
2023-01-02T20:20:42.211Z,13.68
2023-01-02T20:25:43.957Z,12.70
2023-01-02T20:30:46.770Z,14.90
2023-01-02T20:35:48.616Z,10.88
2023-01-02T20:40:51.780Z,10.82
2023-01-02T20:45:53.635Z,11.43
2023-01-02T20:50:55.420Z,8.30
2023-01-02T20:55:57.239Z,14.20
2023-01-02T21:00:59.071Z,14.13
2023-01-02T21:06:02.489Z,17.80
2023-01-02T21:11:05.264Z,22.33
2023-01-02T21:16:07.202Z,15.25
2023-01-02T21:21:15.302Z,14.02
2023-01-02T21:26:19.317Z,11.82
2023-01-02T21:31:21.764Z,11.88
2023-01-02T21:36:23.832Z,11.30
2023-01-02T21:41:45.739Z,9.93
2023-01-02T21:46:47.480Z,11.90
2023-01-02T21:51:49.315Z,17.65
2023-01-02T21:56:51.042Z,9.80
2023-01-02T22:01:53.849Z,13.15
2023-01-02T22:12:17.608Z,7.55
2023-01-02T22:17:19.562Z,10.35
2023-01-02T22:22:21.457Z,7.57
2023-01-02T22:27:23.406Z,8.80
2023-01-02T22:32:25.422Z,7.57
2023-01-02T22:37:27.480Z,7.80
2023-01-02T22:43:01.458Z,7.30
2023-01-02T22:48:08.320Z,7.63
2023-01-02T22:53:18.002Z,9.27
2023-01-02T22:58:20.586Z,8.88
2023-01-02T23:03:22.429Z,8.65
2023-01-02T23:08:24.356Z,9.25
2023-01-02T23:13:26.350Z,11.18
2023-01-02T23:18:50.313Z,9.23
2023-01-02T23:23:56.448Z,10.77
2023-01-02T23:29:07.481Z,8.30
2023-01-02T23:34:11.561Z,10.73
2023-01-02T23:39:16.293Z,8.00
2023-01-02T23:44:18.918Z,7.57
2023-01-02T23:49:21.972Z,9.55
2023-01-02T23:54:23.781Z,11.55
2023-01-02T23:59:26.035Z,9.90
